Time;durP1;ratioP1;P1;durP2;ratioP2;P2;SDS_P1;SDS_P2;PMS_P1;PMS_P2;Temp;Humidity;BMP_temperature;BMP_pressure;BME280_temperature;BME280_humidity;BME280_pressure;Samples;Min_cycle;Max_cycle;Signal;HPM_P1;HPM_P2
2023/01/27 00:01:32;;;;;;;47.70;22.20;;;;;;;-1.27;81.49;101642.99;107604;1254;99851;-60
2023/01/27 00:04:01;;;;;;;49.20;22.80;;;;;;;-1.30;81.59;101645.02;107558;1254;112595;-60
2023/01/27 00:06:35;;;;;;;52.20;23.50;;;;;;;-1.30;81.95;101649.79;107563;1254;111144;-60
2023/01/27 00:09:03;;;;;;;52.30;22.90;;;;;;;-1.31;81.80;101648.73;107540;1252;108465;-61
2023/01/27 00:14:19;;;;;;;48.70;23.00;;;;;;;-1.33;82.00;101660.58;107583;1254;99295;-61
2023/01/27 00:16:48;;;;;;;44.20;22.10;;;;;;;-1.31;82.03;101658.78;107583;1254;112996;-62
2023/01/27 00:19:18;;;;;;;53.50;23.40;;;;;;;-1.30;82.28;101659.44;107536;1254;110326;-61
2023/01/27 00:24:37;;;;;;;50.50;25.00;;;;;;;-1.29;82.10;101665.23;107575;1254;99177;-59
2023/01/27 00:27:08;;;;;;;48.00;23.50;;;;;;;-1.29;82.26;101663.30;107542;1254;99195;-60
2023/01/27 00:29:39;;;;;;;45.80;22.70;;;;;;;-1.29;82.17;101664.88;107584;1252;113540;-59
2023/01/27 00:34:56;;;;;;;53.40;24.80;;;;;;;-1.30;81.88;101660.87;107543;1254;107828;-60
2023/01/27 00:37:24;;;;;;;51.40;25.20;;;;;;;-1.29;82.06;101663.64;107544;1254;99265;-60
2023/01/27 00:39:53;;;;;;;54.40;25.30;;;;;;;-1.23;82.01;101661.40;107529;1252;99752;-60
2023/01/27 00:42:22;;;;;;;55.10;24.70;;;;;;;-1.16;82.06;101661.58;107573;1254;111583;-60
2023/01/27 00:47:37;;;;;;;52.00;25.40;;;;;;;-1.15;81.37;101669.28;107549;1256;108209;-60
2023/01/27 00:50:06;;;;;;;56.70;25.90;;;;;;;-1.17;81.32;101667.59;107567;1256;99607;-61
2023/01/27 00:52:35;;;;;;;55.70;27.20;;;;;;;-1.22;81.03;101674.92;107579;1254;99182;-60
2023/01/27 00:55:05;;;;;;;58.00;26.20;;;;;;;-1.24;80.81;101672.49;107569;1254;113250;-61
2023/01/27 00:57:33;;;;;;;56.90;25.70;;;;;;;-1.32;80.69;101665.30;107586;1254;110063;-59
2023/01/27 01:00:05;;;;;;;57.20;27.10;;;;;;;-1.41;80.47;101661.66;107601;1254;108506;-60
2023/01/27 01:02:34;;;;;;;66.20;25.50;;;;;;;-1.46;80.38;101665.29;107577;1254;99182;-59
2023/01/27 01:05:04;;;;;;;57.60;26.30;;;;;;;-1.51;80.64;101663.83;107562;1254;99128;-60
2023/01/27 01:07:32;;;;;;;60.20;26.00;;;;;;;-1.60;80.45;101662.80;107481;1254;112886;-59
2023/01/27 01:10:01;;;;;;;59.20;28.20;;;;;;;-1.64;80.83;101657.62;107571;1254;109291;-59
2023/01/27 01:12:29;;;;;;;60.00;27.10;;;;;;;-1.69;80.96;101662.31;107528;1253;108360;-59
2023/01/27 01:14:58;;;;;;;55.40;26.00;;;;;;;-1.68;81.62;101664.24;107538;1254;99186;-59
2023/01/27 01:17:26;;;;;;;55.20;27.20;;;;;;;-1.67;81.35;101673.35;107540;1254;100525;-58
2023/01/27 01:19:54;;;;;;;61.50;26.80;;;;;;;-1.67;81.50;101675.45;107582;1254;113989;-60
2023/01/27 01:22:23;;;;;;;59.20;27.10;;;;;;;-1.69;81.46;101673.23;107602;1256;110150;-60
2023/01/27 01:24:52;;;;;;;54.70;25.60;;;;;;;-1.71;81.60;101667.99;107540;1253;107712;-60
2023/01/27 01:27:20;;;;;;;60.40;27.30;;;;;;;-1.70;81.64;101658.82;107505;1256;99176;-59
2023/01/27 01:29:49;;;;;;;56.30;23.90;;;;;;;-1.67;81.37;101653.83;107444;1258;99244;-59
2023/01/27 01:32:17;;;;;;;51.00;24.70;;;;;;;-1.63;81.52;101646.88;107443;1254;113132;-60
2023/01/27 01:34:45;;;;;;;56.80;25.60;;;;;;;-1.59;81.40;101642.19;107543;1254;110129;-60
2023/01/27 01:37:16;;;;;;;56.20;27.50;;;;;;;-1.59;81.13;101633.40;107519;1256;109753;-61
2023/01/27 01:39:45;;;;;;;53.90;24.70;;;;;;;-1.60;81.51;101630.61;107407;1254;99252;-60
2023/01/27 01:42:13;;;;;;;50.50;23.20;;;;;;;-1.62;81.36;101633.83;107564;1256;99185;-60
2023/01/27 01:44:44;;;;;;;49.40;23.00;;;;;;;-1.66;81.14;101630.92;107545;1252;112720;-61
2023/01/27 01:47:16;;;;;;;59.10;23.70;;;;;;;-1.69;81.06;101627.13;107598;1254;108883;-59
2023/01/27 01:49:46;;;;;;;59.70;25.70;;;;;;;-1.74;81.24;101633.77;107434;1254;108641;-59
2023/01/27 01:52:20;;;;;;;53.90;23.50;;;;;;;-1.76;81.57;101632.05;107548;1256;99062;-60
2023/01/27 01:54:53;;;;;;;48.40;22.50;;;;;;;-1.74;81.37;101629.01;107567;1254;100917;-61
2023/01/27 01:57:31;;;;;;;56.80;23.30;;;;;;;-1.71;81.60;101623.50;107555;1254;113173;-59
2023/01/27 02:00:05;;;;;;;56.30;23.80;;;;;;;-1.65;81.31;101626.52;107566;1254;109681;-59
2023/01/27 02:02:53;;;;;;;52.30;24.20;;;;;;;-1.59;81.21;101623.73;107558;1257;108781;-61
2023/01/27 02:05:30;;;;;;;57.60;25.20;;;;;;;-1.59;81.16;101624.97;107579;1254;99198;-59
2023/01/27 02:08:24;;;;;;;55.30;25.80;;;;;;;-1.60;81.13;101622.70;107578;1254;99048;-60
2023/01/27 02:10:53;;;;;;;55.50;23.00;;;;;;;-1.57;81.13;101621.39;107427;1260;112790;-59
2023/01/27 02:13:21;;;;;;;50.00;23.90;;;;;;;-1.54;80.83;101624.67;107493;1255;110063;-60
2023/01/27 02:15:52;;;;;;;56.00;24.40;;;;;;;-1.56;80.86;101628.05;107478;1255;109471;-61
2023/01/27 02:18:21;;;;;;;49.50;24.10;;;;;;;-1.61;80.32;101621.13;107463;1254;99175;-60
2023/01/27 02:20:53;;;;;;;56.40;23.90;;;;;;;-1.65;80.54;101615.77;107545;1257;99691;-59
2023/01/27 02:23:49;;;;;;;56.20;25.20;;;;;;;-1.64;80.72;101608.73;107559;1256;112803;-59
2023/01/27 02:26:26;;;;;;;53.70;25.00;;;;;;;-1.64;80.62;101604.32;107368;1259;111101;-60
2023/01/27 02:28:58;;;;;;;56.80;23.90;;;;;;;-1.65;80.80;101603.29;107448;1257;107716;-59
2023/01/27 02:31:27;;;;;;;49.30;23.50;;;;;;;-1.70;80.44;101597.27;107554;1256;99207;-58
2023/01/27 02:34:02;;;;;;;56.30;23.30;;;;;;;-1.70;80.43;101597.27;107554;1256;99095;-59
2023/01/27 02:36:34;;;;;;;50.10;22.90;;;;;;;-1.69;80.19;101594.06;107580;1255;112738;-60
2023/01/27 02:39:06;;;;;;;59.10;25.40;;;;;;;-1.67;80.32;101593.86;107574;1254;111008;-58
2023/01/27 02:41:55;;;;;;;45.60;21.00;;;;;;;-1.71;80.49;101594.65;107471;1254;108661;-62
2023/01/27 02:44:26;;;;;;;44.30;20.40;;;;;;;-1.74;80.42;101597.02;107499;1257;99211;-59
2023/01/27 02:46:54;;;;;;;48.70;21.80;;;;;;;-1.76;80.10;101596.70;107559;1257;99809;-60
2023/01/27 02:49:24;;;;;;;44.10;20.50;;;;;;;-1.76;79.98;101594.41;107558;1253;113829;-60
2023/01/27 02:51:52;;;;;;;46.50;22.70;;;;;;;-1.78;79.95;101593.05;107581;1256;110098;-59
2023/01/27 02:54:24;;;;;;;47.40;21.50;;;;;;;-1.83;79.81;101595.63;107414;1254;108158;-59
2023/01/27 02:56:52;;;;;;;48.60;21.30;;;;;;;-1.83;79.93;101595.65;107544;1254;99190;-60
2023/01/27 02:59:22;;;;;;;47.00;22.00;;;;;;;-1.83;79.66;101597.04;107438;1254;99428;-59
2023/01/27 03:01:51;;;;;;;46.10;22.50;;;;;;;-1.84;79.28;101598.64;107563;1256;113270;-61
2023/01/27 03:04:21;;;;;;;45.50;21.80;;;;;;;-1.88;79.33;101593.65;107583;1254;108848;-59
2023/01/27 03:06:49;;;;;;;43.50;20.70;;;;;;;-1.90;79.34;101591.03;107571;1256;108561;-60
2023/01/27 03:09:17;;;;;;;42.40;21.40;;;;;;;-1.92;79.09;101587.58;107544;1252;99219;-62
2023/01/27 03:20:09;;;;;;;48.80;20.50;;;;;;;-2.03;78.95;101586.77;107508;1254;107812;-59
2023/01/27 03:22:37;;;;;;;43.40;21.30;;;;;;;-2.05;79.03;101582.23;107513;1253;99253;-61
2023/01/27 03:25:07;;;;;;;41.80;20.90;;;;;;;-2.06;79.05;101579.30;107493;1254;99282;-60
2023/01/27 03:27:35;;;;;;;46.40;20.20;;;;;;;-2.06;79.10;101579.29;107556;1254;113380;-59
2023/01/27 03:30:19;;;;;;;44.20;20.80;;;;;;;-2.07;79.18;101573.87;107594;1254;109681;-60
2023/01/27 03:32:55;;;;;;;44.40;21.20;;;;;;;-2.10;79.23;101579.20;107593;1253;107602;-58
2023/01/27 03:47:14;;;;;;;43.10;21.50;;;;;;;-1.88;79.45;101556.56;107526;1254;107063;-60
2023/01/27 03:49:42;;;;;;;48.10;21.60;;;;;;;-1.84;79.54;101551.18;107603;1255;99294;-59
2023/01/27 03:52:11;;;;;;;47.10;22.00;;;;;;;-1.82;79.40;101548.84;107623;1253;99932;-60
2023/01/27 03:54:39;;;;;;;46.40;22.70;;;;;;;-1.79;79.51;101544.52;107550;1254;112797;-59
2023/01/27 03:57:08;;;;;;;50.50;23.10;;;;;;;-1.73;79.53;101541.41;107575;1252;109252;-59
2023/01/27 03:59:36;;;;;;;45.50;22.30;;;;;;;-1.68;79.44;101545.16;107431;1252;109075;-60
2023/01/27 04:07:40;;;;;;;47.40;22.60;;;;;;;-1.61;79.30;101547.61;107594;1256;113242;-59
2023/01/27 04:10:09;;;;;;;49.60;22.60;;;;;;;-1.54;79.30;101553.77;107578;1254;109704;-59
2023/01/27 04:12:38;;;;;;;46.40;21.70;;;;;;;-1.48;79.24;101558.91;107510;1255;108921;-61
2023/01/27 04:15:07;;;;;;;50.60;23.30;;;;;;;-1.47;79.03;101555.00;107541;1254;99892;-60
2023/01/27 04:17:37;;;;;;;51.20;22.30;;;;;;;-1.41;79.07;101561.90;107657;1257;99716;-59
2023/01/27 04:20:07;;;;;;;58.10;25.10;;;;;;;-1.35;78.78;101561.03;107667;1254;112579;-61
2023/01/27 04:22:35;;;;;;;51.40;23.90;;;;;;;-1.30;78.91;101560.89;107646;1254;109368;-60
2023/01/27 04:25:04;;;;;;;63.60;26.90;;;;;;;-1.28;78.39;101566.64;107527;1254;106553;-59
2023/01/27 04:27:33;;;;;;;51.50;24.80;;;;;;;-1.30;78.37;101571.46;107608;1254;99199;-60
2023/01/27 04:30:01;;;;;;;58.30;27.10;;;;;;;-1.28;78.11;101568.95;107471;1254;99102;-60
2023/01/27 04:32:29;;;;;;;50.30;23.50;;;;;;;-1.30;77.91;101563.16;107564;1253;112617;-60
2023/01/27 04:34:58;;;;;;;59.30;26.10;;;;;;;-1.29;78.02;101562.45;107600;1254;109567;-61
2023/01/27 04:37:26;;;;;;;50.90;26.20;;;;;;;-1.30;77.74;101562.83;107625;1256;107735;-60
2023/01/27 04:39:54;;;;;;;50.70;24.60;;;;;;;-1.34;77.44;101568.20;107529;1254;99215;-61
2023/01/27 04:42:23;;;;;;;55.80;26.70;;;;;;;-1.37;77.64;101564.06;107554;1254;99745;-61
2023/01/27 04:44:51;;;;;;;58.30;28.20;;;;;;;-1.39;77.53;101562.00;107547;1254;113160;-61
2023/01/27 04:47:20;;;;;;;61.60;26.50;;;;;;;-1.44;77.18;101562.33;107474;1254;110578;-59
2023/01/27 04:49:48;;;;;;;57.90;27.10;;;;;;;-1.51;77.19;101560.93;107543;1254;109057;-59
2023/01/27 04:52:16;;;;;;;57.50;27.90;;;;;;;-1.53;77.46;101560.45;107569;1255;99360;-61
2023/01/27 04:54:44;;;;;;;61.70;28.80;;;;;;;-1.53;77.44;101560.09;107575;1254;99204;-60
2023/01/27 04:57:13;;;;;;;60.50;28.20;;;;;;;-1.53;77.50;101563.79;107614;1254;113200;-59
2023/01/27 04:59:42;;;;;;;60.00;28.40;;;;;;;-1.51;77.65;101563.20;107631;1253;109965;-62
2023/01/27 05:02:10;;;;;;;70.20;29.90;;;;;;;-1.52;77.37;101563.05;107469;1257;108314;-59
2023/01/27 05:04:39;;;;;;;65.70;29.30;;;;;;;-1.56;77.35;101557.88;107595;1254;99205;-59
2023/01/27 05:07:08;;;;;;;72.20;29.80;;;;;;;-1.59;77.41;101553.91;107606;1254;99377;-59
2023/01/27 05:09:36;;;;;;;66.50;28.40;;;;;;;-1.61;77.62;101548.14;107551;1253;113076;-61
2023/01/27 05:12:05;;;;;;;63.50;26.80;;;;;;;-1.66;77.59;101545.45;107532;1254;110517;-60
2023/01/27 05:14:33;;;;;;;66.50;27.80;;;;;;;-1.69;77.66;101544.66;107584;1254;108693;-59
2023/01/27 05:17:02;;;;;;;77.70;28.80;;;;;;;-1.71;77.58;101543.31;107606;1254;99222;-61
2023/01/27 05:19:30;;;;;;;65.80;27.60;;;;;;;-1.75;77.69;101538.65;107599;1254;99191;-60
2023/01/27 05:21:59;;;;;;;63.50;28.60;;;;;;;-1.78;77.96;101535.89;107581;1254;113351;-60
2023/01/27 05:24:27;;;;;;;64.30;29.30;;;;;;;-1.79;78.25;101536.28;107600;1254;110195;-59
2023/01/27 05:26:56;;;;;;;64.80;29.30;;;;;;;-1.77;78.49;101531.84;107555;1254;108246;-59
2023/01/27 05:29:25;;;;;;;68.50;27.70;;;;;;;-1.76;78.61;101530.05;107573;1256;99228;-59
2023/01/27 05:31:53;;;;;;;55.70;25.70;;;;;;;-1.72;78.83;101527.31;107666;1253;101064;-59
2023/01/27 05:34:22;;;;;;;60.50;26.70;;;;;;;-1.69;78.88;101528.64;107587;1254;113312;-60
2023/01/27 05:36:50;;;;;;;65.40;27.70;;;;;;;-1.65;79.01;101530.48;107609;1254;109326;-59
2023/01/27 05:39:18;;;;;;;60.90;25.50;;;;;;;-1.58;79.39;101531.88;107600;1254;107759;-60
2023/01/27 05:41:47;;;;;;;57.50;25.10;;;;;;;-1.54;79.17;101533.38;107485;1254;99294;-61
2023/01/27 05:44:16;;;;;;;57.50;27.10;;;;;;;-1.47;79.46;101524.40;107496;1254;99794;-61
2023/01/27 05:46:45;;;;;;;54.40;24.80;;;;;;;-1.44;79.05;101520.09;107605;1254;113685;-59
2023/01/27 05:49:13;;;;;;;58.10;23.40;;;;;;;-1.43;79.04;101519.00;107650;1256;109794;-60
2023/01/27 05:51:41;;;;;;;58.50;25.40;;;;;;;-1.41;79.04;101518.79;107537;1254;107827;-60
2023/01/27 05:54:10;;;;;;;54.50;26.00;;;;;;;-1.43;79.02;101523.37;107514;1254;99176;-60
2023/01/27 05:56:39;;;;;;;54.10;23.30;;;;;;;-1.38;79.28;101527.14;107673;1254;100435;-60
2023/01/27 05:59:09;;;;;;;53.60;23.20;;;;;;;-1.32;79.26;101523.61;107642;1254;114372;-61
2023/01/27 06:01:38;;;;;;;56.70;23.60;;;;;;;-1.26;79.31;101519.96;107487;1252;108802;-60
2023/01/27 06:04:08;;;;;;;69.20;24.40;;;;;;;-1.17;79.48;101521.30;107509;1254;108094;-60
2023/01/27 06:06:36;;;;;;;61.40;24.10;;;;;;;-1.13;79.28;101515.56;107568;1257;99453;-60
2023/01/27 06:09:05;;;;;;;52.10;22.80;;;;;;;-1.06;79.34;101517.84;107555;1254;99080;-62
2023/01/27 06:11:33;;;;;;;48.90;23.30;;;;;;;-0.96;79.65;101519.30;107569;1254;113224;-60
2023/01/27 06:14:01;;;;;;;55.70;24.00;;;;;;;-0.87;79.36;101524.18;107379;1254;110113;-59
2023/01/27 06:16:30;;;;;;;54.20;22.90;;;;;;;-0.80;79.39;101528.89;107572;1254;108537;-60
2023/01/27 06:18:58;;;;;;;55.30;21.70;;;;;;;-0.77;78.61;101523.54;107648;1254;99165;-59
2023/01/27 06:21:27;;;;;;;53.40;24.60;;;;;;;-0.77;78.35;101527.77;107554;1254;99067;-59
2023/01/27 06:23:56;;;;;;;48.30;22.30;;;;;;;-0.76;78.34;101535.13;107544;1253;113120;-60
2023/01/27 06:26:25;;;;;;;51.10;22.70;;;;;;;-0.76;78.27;101548.70;107654;1254;109974;-60
2023/01/27 06:28:56;;;;;;;58.70;23.90;;;;;;;-0.78;77.73;101554.21;107644;1254;108575;-61
2023/01/27 06:31:26;;;;;;;59.20;26.10;;;;;;;-0.78;78.06;101561.27;107593;1254;99227;-61
2023/01/27 06:33:54;;;;;;;54.50;24.60;;;;;;;-0.80;77.79;101564.84;107499;1254;99124;-59
2023/01/27 06:36:23;;;;;;;60.10;25.50;;;;;;;-0.87;77.43;101557.98;107629;1254;112686;-60
2023/01/27 06:38:51;;;;;;;48.30;21.90;;;;;;;-0.90;77.34;101570.05;107638;1254;109637;-59
2023/01/27 06:41:20;;;;;;;49.50;23.10;;;;;;;-0.94;77.35;101579.47;107534;1254;108103;-59
2023/01/27 06:43:48;;;;;;;50.10;23.30;;;;;;;-0.95;77.29;101577.75;107539;1255;99305;-59
2023/01/27 06:46:17;;;;;;;55.30;22.50;;;;;;;-0.97;77.35;101579.21;107489;1254;99202;-60
2023/01/27 06:48:45;;;;;;;53.00;24.10;;;;;;;-1.05;77.16;101574.48;107443;1254;113561;-60
2023/01/27 06:51:14;;;;;;;54.30;22.60;;;;;;;-1.12;77.15;101560.95;107543;1253;110189;-59
2023/01/27 06:53:43;;;;;;;47.00;22.60;;;;;;;-1.14;77.60;101552.55;107505;1254;107793;-60
2023/01/27 06:56:11;;;;;;;62.30;24.30;;;;;;;-1.19;77.98;101549.70;107492;1253;99199;-62
2023/01/27 06:58:39;;;;;;;61.10;27.00;;;;;;;-1.24;77.82;101557.22;107543;1254;99727;-62
2023/01/27 07:01:08;;;;;;;55.60;23.40;;;;;;;-1.22;78.21;101557.71;107540;1256;113076;-60
2023/01/27 07:03:36;;;;;;;61.20;24.40;;;;;;;-1.22;78.34;101560.70;107517;1253;110088;-60
2023/01/27 07:06:05;;;;;;;58.50;24.30;;;;;;;-1.22;78.80;101556.30;107544;1254;106823;-60
2023/01/27 07:08:34;;;;;;;54.60;24.10;;;;;;;-1.20;78.93;101543.75;107427;1254;99134;-61
2023/01/27 07:11:04;;;;;;;51.00;22.90;;;;;;;-1.19;79.11;101527.15;107524;1254;99162;-59
2023/01/27 07:13:32;;;;;;;57.80;22.80;;;;;;;-1.16;78.95;101521.81;107563;1254;112782;-60
2023/01/27 07:16:01;;;;;;;50.80;23.40;;;;;;;-1.14;79.21;101519.81;107625;1254;109035;-60
2023/01/27 07:18:29;;;;;;;53.40;22.40;;;;;;;-1.11;79.41;101515.48;107488;1251;106382;-60
2023/01/27 07:20:58;;;;;;;61.40;24.50;;;;;;;-1.03;79.45;101511.77;107503;1254;99192;-59
2023/01/27 07:23:26;;;;;;;52.50;23.60;;;;;;;-1.00;79.59;101516.78;107596;1254;99077;-58
2023/01/27 07:25:54;;;;;;;49.80;22.10;;;;;;;-0.93;79.52;101507.80;107542;1254;114090;-59
2023/01/27 07:28:23;;;;;;;47.20;20.90;;;;;;;-0.88;79.71;101496.36;107651;1254;109732;-59
2023/01/27 07:30:51;;;;;;;52.90;22.10;;;;;;;-0.86;79.55;101491.73;107714;1254;107774;-60
2023/01/27 07:33:19;;;;;;;51.30;23.00;;;;;;;-0.85;79.59;101493.30;107610;1256;99198;-61
2023/01/27 07:35:48;;;;;;;53.80;22.40;;;;;;;-0.80;79.62;101507.94;107579;1252;99088;-61
2023/01/27 07:38:17;;;;;;;55.30;23.20;;;;;;;-0.72;79.64;101508.77;107594;1253;112682;-59
2023/01/27 07:40:46;;;;;;;52.20;23.30;;;;;;;-0.66;79.61;101513.52;107547;1253;109325;-60
2023/01/27 07:43:14;;;;;;;55.20;23.90;;;;;;;-0.64;79.42;101516.10;107417;1259;107672;-61
2023/01/27 07:45:47;;;;;;;55.30;25.10;;;;;;;-0.59;79.65;101509.43;107453;1254;99080;-61
2023/01/27 07:48:16;;;;;;;56.00;25.10;;;;;;;-0.50;79.70;101515.86;107559;1254;99074;-60
2023/01/27 07:50:45;;;;;;;57.00;24.00;;;;;;;-0.40;79.80;101524.21;107675;1254;113294;-59
2023/01/27 07:53:14;;;;;;;52.70;23.80;;;;;;;-0.35;79.41;101534.42;107553;1254;110078;-61
2023/01/27 07:55:42;;;;;;;44.30;22.20;;;;;;;-0.38;78.82;101537.16;107615;1253;107858;-60
2023/01/27 07:58:11;;;;;;;52.10;23.70;;;;;;;-0.39;78.62;101533.51;107670;1254;99179;-59
2023/01/27 08:00:39;;;;;;;51.60;23.70;;;;;;;-0.38;78.30;101534.17;107694;1256;99092;-59
2023/01/27 08:03:20;;;;;;;49.00;25.60;;;;;;;-0.41;77.25;101536.71;107725;1254;113490;-60
2023/01/27 08:05:49;;;;;;;54.00;26.20;;;;;;;-0.46;77.47;101537.25;107700;1253;108629;-58
2023/01/27 08:08:18;;;;;;;54.10;24.80;;;;;;;-0.47;77.62;101537.80;107671;1254;108418;-58
2023/01/27 08:10:48;;;;;;;56.10;27.60;;;;;;;-0.47;77.68;101542.02;107632;1254;99249;-59
2023/01/27 08:13:16;;;;;;;53.90;26.10;;;;;;;-0.46;77.59;101538.48;107646;1254;99285;-60
2023/01/27 08:15:45;;;;;;;56.90;27.20;;;;;;;-0.50;77.52;101532.77;107597;1253;113364;-59
2023/01/27 08:18:13;;;;;;;57.90;24.90;;;;;;;-0.52;77.26;101533.91;107593;1253;108536;-61
2023/01/27 08:20:41;;;;;;;54.80;24.30;;;;;;;-0.57;77.02;101527.54;107590;1252;108403;-60
2023/01/27 08:23:13;;;;;;;51.50;23.30;;;;;;;-0.61;76.89;101526.08;107557;1254;99233;-59
2023/01/27 08:25:47;;;;;;;51.40;22.70;;;;;;;-0.61;76.76;101523.42;107563;1254;100948;-58
2023/01/27 08:28:15;;;;;;;49.40;23.80;;;;;;;-0.61;76.71;101521.30;107605;1254;115777;-59
2023/01/27 08:30:45;;;;;;;49.80;23.90;;;;;;;-0.62;76.83;101519.39;107621;1254;108946;-59
2023/01/27 08:33:13;;;;;;;54.70;23.70;;;;;;;-0.58;77.03;101517.00;107608;1255;108377;-60
2023/01/27 08:35:43;;;;;;;51.10;22.80;;;;;;;-0.52;76.48;101512.95;107547;1253;99193;-60
2023/01/27 08:38:13;;;;;;;44.80;19.60;;;;;;;-0.49;76.32;101503.50;107625;1255;99726;-59
2023/01/27 08:40:42;;;;;;;43.70;20.60;;;;;;;-0.45;75.87;101501.79;107490;1251;113231;-62
2023/01/27 08:43:12;;;;;;;48.10;20.40;;;;;;;-0.44;76.15;101505.48;107617;1254;110005;-63
2023/01/27 08:45:40;;;;;;;44.90;20.10;;;;;;;-0.38;76.21;101505.79;107545;1254;108900;-60
2023/01/27 08:48:09;;;;;;;47.90;19.90;;;;;;;-0.34;76.21;101504.63;107534;1254;99301;-61
2023/01/27 08:50:39;;;;;;;38.00;19.30;;;;;;;-0.27;75.95;101500.52;107627;1254;99746;-60
2023/01/27 08:53:07;;;;;;;40.70;18.90;;;;;;;-0.20;75.74;101493.79;107475;1254;113587;-60
2023/01/27 08:55:36;;;;;;;44.90;19.70;;;;;;;-0.16;75.16;101491.91;107512;1253;109748;-60
2023/01/27 08:58:05;;;;;;;36.60;20.20;;;;;;;-0.18;74.31;101490.17;107424;1254;107552;-60
2023/01/27 09:00:34;;;;;;;46.60;22.10;;;;;;;-0.18;74.46;101488.23;107607;1253;101376;-61
2023/01/27 09:03:02;;;;;;;38.80;20.00;;;;;;;-0.16;74.39;101479.54;107519;1253;99195;-60
2023/01/27 09:05:31;;;;;;;41.10;21.30;;;;;;;-0.13;74.07;101480.17;107622;1254;115281;-60
2023/01/27 09:08:00;;;;;;;41.90;21.50;;;;;;;-0.12;74.32;101476.07;107543;1253;109759;-59
2023/01/27 09:10:28;;;;;;;40.30;18.60;;;;;;;-0.07;74.59;101460.41;107557;1252;108756;-60
2023/01/27 09:12:56;;;;;;;41.00;21.50;;;;;;;-0.05;74.03;101460.50;107613;1253;99274;-61
2023/01/27 09:15:25;;;;;;;42.40;20.90;;;;;;;-0.03;74.25;101458.67;107663;1253;99099;-59
2023/01/27 09:17:53;;;;;;;40.00;20.30;;;;;;;0.07;74.15;101457.65;107673;1253;112275;-60
2023/01/27 09:20:22;;;;;;;44.70;21.90;;;;;;;0.15;73.02;101453.84;107652;1254;109249;-60
2023/01/27 09:22:53;;;;;;;44.60;20.80;;;;;;;0.20;72.77;101447.15;107590;1252;108696;-59
2023/01/27 09:25:22;;;;;;;40.60;22.40;;;;;;;0.22;72.44;101448.66;107627;1254;99217;-60
2023/01/27 09:27:55;;;;;;;39.10;20.90;;;;;;;0.28;72.82;101446.88;107467;1254;99717;-61
2023/01/27 09:30:25;;;;;;;;;;;;;;;0.31;72.60;101445.86;107536;1253;113507;-60
2023/01/27 09:32:58;;;;;;;45.30;18.80;;;;;;;0.32;72.61;101442.83;107606;1254;110593;-63
2023/01/27 09:35:35;;;;;;;35.50;19.70;;;;;;;0.31;71.77;101438.48;107685;1253;108741;-62
2023/01/27 09:38:05;;;;;;;45.70;20.40;;;;;;;0.28;71.60;101437.68;107402;1253;99199;-62
2023/01/27 09:41:06;;;;;;;45.40;20.80;;;;;;;0.29;72.08;101431.13;107446;1253;99108;-66
2023/01/27 09:44:08;;;;;;;38.80;19.30;;;;;;;0.33;71.93;101428.36;107458;1253;112671;-60
2023/01/27 09:46:48;;;;;;;37.80;19.30;;;;;;;0.36;71.80;101428.79;107460;1254;109854;-61
2023/01/27 09:49:47;;;;;;;34.80;18.40;;;;;;;0.44;72.23;101427.10;107434;1254;108661;-59
2023/01/27 09:52:33;;;;;;;51.60;21.60;;;;;;;0.48;70.57;101430.66;107514;1253;99207;-60
2023/01/27 09:55:35;;;;;;;45.00;21.50;;;;;;;0.49;71.21;101432.03;107542;1253;99093;-59
2023/01/27 09:58:40;;;;;;;42.60;22.40;;;;;;;0.53;71.20;101427.30;107450;1253;113174;-60
2023/01/27 10:01:41;;;;;;;40.90;20.80;;;;;;;0.55;71.07;101432.15;107153;1254;109746;-60
2023/01/27 10:04:25;;;;;;;47.20;21.50;;;;;;;0.52;70.29;101433.88;106846;1254;109687;-64
2023/01/27 10:07:00;;;;;;;43.80;22.50;;;;;;;0.40;70.34;101425.97;107639;1252;99190;-63
2023/01/27 10:09:37;;;;;;;41.30;20.70;;;;;;;0.35;69.99;101422.10;107647;1254;99067;-64
2023/01/27 10:12:21;;;;;;;48.50;22.60;;;;;;;0.28;70.27;101429.05;107439;1253;113145;-61
2023/01/27 10:14:55;;;;;;;56.70;23.70;;;;;;;0.23;70.53;101433.30;107580;1256;109491;-59
2023/01/27 10:17:27;;;;;;;46.50;21.10;;;;;;;0.20;70.24;101425.27;107565;1256;108543;-60
2023/01/27 10:20:13;;;;;;;41.10;20.80;;;;;;;0.17;70.67;101419.02;107530;1253;99254;-61
2023/01/27 10:23:16;;;;;;;44.80;21.20;;;;;;;0.14;70.19;101421.23;107532;1253;99081;-61
2023/01/27 10:25:53;;;;;;;42.10;20.60;;;;;;;0.09;70.63;101419.47;107407;1254;113166;-60
2023/01/27 10:28:26;;;;;;;47.40;22.40;;;;;;;0.08;70.89;101418.27;107507;1254;110382;-62
2023/01/27 10:31:02;;;;;;;49.50;21.40;;;;;;;0.12;70.97;101418.14;107468;1253;107374;-60
2023/01/27 10:33:50;;;;;;;53.30;22.10;;;;;;;0.14;70.94;101418.77;107657;1256;99096;-61
2023/01/27 10:36:29;;;;;;;55.00;26.10;;;;;;;0.17;71.25;101408.10;107668;1254;99074;-61
2023/01/27 10:39:09;;;;;;;41.20;18.40;;;;;;;0.22;70.83;101404.92;107691;1253;114079;-60
2023/01/27 10:41:57;;;;;;;47.60;20.40;;;;;;;0.19;70.70;101396.73;107519;1255;109922;-60
2023/01/27 10:44:41;;;;;;;38.60;21.50;;;;;;;0.17;70.96;101389.73;106749;1252;1051408;-60
2023/01/27 10:47:15;;;;;;;;;;;;;;;0.20;70.90;101381.71;107608;1254;100740;-61
2023/01/27 10:49:52;;;;;;;45.10;21.40;;;;;;;0.23;70.76;101383.36;107640;1253;99743;-60
2023/01/27 10:52:26;;;;;;;40.80;21.20;;;;;;;0.24;70.25;101377.51;107598;1254;113521;-60
2023/01/27 10:55:13;;;;;;;62.90;22.30;;;;;;;0.15;70.09;101378.33;107656;1253;109818;-60
2023/01/27 10:58:09;;;;;;;43.30;21.30;;;;;;;0.12;70.27;101390.08;107639;1254;108164;-59
2023/01/27 11:00:48;;;;;;;40.70;20.80;;;;;;;0.15;70.47;101389.11;107604;1253;99282;-58
2023/01/27 11:03:42;;;;;;;49.00;21.70;;;;;;;0.21;70.67;101383.96;107625;1253;99300;-60
2023/01/27 11:06:19;;;;;;;31.60;17.90;;;;;;;0.28;70.52;101375.94;107608;1254;112360;-59
2023/01/27 11:08:53;;;;;;;35.90;17.70;;;;;;;0.29;69.98;101374.65;107615;1252;110129;-60
2023/01/27 11:11:42;;;;;;;40.40;17.20;;;;;;;0.28;69.95;101372.95;107572;1256;107860;-61
2023/01/27 11:14:34;;;;;;;29.90;17.30;;;;;;;0.28;70.14;101359.71;107567;1254;99194;-59
2023/01/27 11:17:23;;;;;;;37.90;16.00;;;;;;;0.30;69.86;101351.35;107513;1254;99080;-59
2023/01/27 11:20:11;;;;;;;32.10;16.20;;;;;;;0.28;69.61;101350.90;107587;1254;112722;-62
2023/01/27 11:22:54;;;;;;;37.80;16.60;;;;;;;0.22;69.51;101346.69;107577;1254;110072;-61
2023/01/27 11:25:35;;;;;;;36.00;18.50;;;;;;;0.23;69.71;101345.05;107499;1253;106811;-60
2023/01/27 11:28:18;;;;;;;35.90;17.70;;;;;;;0.26;69.90;101355.39;107323;1253;99169;-60
2023/01/27 11:31:01;;;;;;;34.10;16.90;;;;;;;0.27;69.94;101350.23;107490;1254;99256;-60
2023/01/27 11:33:57;;;;;;;33.80;17.00;;;;;;;0.30;70.04;101349.23;107564;1256;113371;-60
2023/01/27 11:36:25;;;;;;;29.10;16.30;;;;;;;0.38;70.27;101344.90;107503;1256;109793;-60
2023/01/27 11:39:02;;;;;;;33.90;17.60;;;;;;;0.46;70.06;101345.49;107590;1253;107848;-60
2023/01/27 11:41:39;;;;;;;36.70;17.50;;;;;;;0.45;69.76;101344.78;107636;1252;99303;-59
2023/01/27 11:44:31;;;;;;;38.60;18.50;;;;;;;0.47;69.09;101347.39;107628;1254;99203;-59
2023/01/27 11:47:03;;;;;;;30.80;15.60;;;;;;;0.39;69.36;101345.02;107552;1253;113920;-60
2023/01/27 11:49:40;;;;;;;36.00;19.90;;;;;;;0.37;68.95;101347.73;107570;1253;110215;-60
2023/01/27 11:52:12;;;;;;;39.10;18.70;;;;;;;0.33;69.12;101342.24;107495;1254;108206;-60
2023/01/27 11:55:06;;;;;;;37.70;19.10;;;;;;;0.27;69.11;101339.44;107625;1253;99176;-59
2023/01/27 11:57:40;;;;;;;39.30;20.30;;;;;;;0.25;69.32;101335.32;107548;1253;99237;-60
2023/01/27 12:00:22;;;;;;;39.10;18.80;;;;;;;0.23;69.41;101333.25;107632;1254;113799;-59